• Join FlightAware (Why Join?)
  • Login
  • US Flag 
07:40AM EST


 

Airport Tracker/Info


-or-


 

Live Flight TrackerFlight Track Log ✈ WWW448 ✈ 09-May-2013 ✈ KTNX - KLAS

Flight Track Log - Related Links

Times and Time Zones

All times are in EDT time to prevent confusion due to time zone crossing. See the WWW448 flight status page for this flight to view local times or setup timezone preferences in your user account.

Time Position Orientation Groundspeed Altitude Reporting Facility
EDT Latitude Longitude Course Direction KTS MPH feet Rate Location/Type
10:37PM 37.8725 -116.8506 186° South 219 252 8,500  Level Los Angeles Center
10:38PM 37.9206 -116.9058 318° Northwest 263 303 10,600 2,100 Climbing Los Angeles Center
10:39PM 38.0003 -117.0036 316° Northwest 315 362 12,900 2,640 Climbing Los Angeles Center
10:40PM 37.9883 -117.1389 264° West 376 433 16,100 2,700 Climbing Los Angeles Center
10:41PM 37.9078 -117.1925 208° Southwest 405 466 18,600 1,380 Climbing Los Angeles Center
10:42PM 37.7239 -117.2135 186° South  Level FlightAware Approximate
10:42PM 37.7442 -117.2142 186° South 420 483 19,000  Level Los Angeles Center
10:43PM 37.6258 -117.2292 186° South 424 488 19,000  Level Los Angeles Center
10:44PM 37.5078 -117.2444 186° South 425 489 19,000  Level Los Angeles Center
10:45PM 37.4108 -117.1758 151° Southeast 408 470 19,000  Level Los Angeles Center
10:46PM 37.3233 -117.0900 142° Southeast 402 463 19,000  Level Los Angeles Center
10:47PM 37.2272 -117.0131 147° Southeast 408 470 19,000  Level Los Angeles Center
10:48PM 37.1306 -116.9369 148° Southeast 410 472 19,000  Level Los Angeles Center
10:49PM 37.0169 -116.8439 147° Southeast 408 470 19,000  Level Los Angeles Center
10:50PM 36.9239 -116.7644 146° Southeast 407 468 19,000  Level Los Angeles Center
10:51PM 36.8300 -116.6878 147° Southeast 404 465 19,000  Level Los Angeles Center
10:52PM 36.7617 -116.5819 129° Southeast 395 455 19,000  Level Los Angeles Center
10:53PM 36.7003 -116.4683 124° Southeast 395 455 19,000  Level Los Angeles Center
10:55PM 36.6525 -116.3189 112° Southeast 389 448 19,000  Level Los Angeles Center
10:56PM 36.6094 -116.1667 109° East 390 449 19,000  Level Los Angeles Center
10:57PM 36.5728 -116.0394 110° East 391 450 19,000  Level Los Angeles Center
10:58PM 36.5072 -115.9258 126° Southeast 393 452 19,000  Level Los Angeles Center
10:58PM 36.4961 -115.8958 115° Southeast 404 465 19,000  Level Los Angeles Center
10:58PM 36.4592 -115.8400 129° Southeast 395 455 19,000  Level Los Angeles Center
10:59PM 36.4369 -115.7947 121° Southeast 387 445 19,000 -720 Level Los Angeles Center
10:59PM 36.3964 -115.7269 127° Southeast 392 451 18,300 -1,680 Descending Los Angeles Center
11:00PM 36.3753 -115.6847 122° Southeast 389 448 17,300 -2,580 Descending Los Angeles Center
11:00PM 36.3408 -115.6275 127° Southeast 379 436 16,000 -2,040 Descending Los Angeles Center
11:01PM 36.2956 -115.5786 139° Southeast 383 441 15,200 -1,080 Descending Los Angeles Center
11:01PM 36.2500 -115.5453 149° Southeast 344 396 14,800 -540 Descending Los Angeles Center
11:02PM 36.2333 -115.5300 144° Southeast 349 402 14,700 -1,320 Descending Los Angeles Center
11:02PM 36.1756 -115.4894 150° Southeast 315 362 13,500 -1,980 Descending Los Angeles Center
11:03PM 36.1456 -115.4622 144° Southeast 317 365 12,700 -1,800 Descending Los Angeles Center
11:03PM 36.1083 -115.4369 151° Southeast 311 358 11,900 -1,680 Descending Los Angeles Center
11:04PM 36.0578 -115.3953 146° Southeast 311 358 11,000 -840 Descending Los Angeles Center
11:04PM 36.0331 -115.3683 139° Southeast 295 339 11,000  Level Los Angeles Center
11:05PM 36.0272 -115.3125 97° East 290 334 11,000 -420 Level Los Angeles Center
11:05PM 36.0239 -115.2758 96° East 271 312 10,600 -1,260 Descending Los Angeles Center
11:06PM 36.0183 -115.2019 95° East 272 313 9,500 -1,320 Descending Los Angeles Center
11:07PM 35.9792 -115.1425 129° Southeast 265 305 8,100 -780 Descending Los Angeles Center
11:08PM 35.9139 -115.1647 195° South 243 280 8,000 -660 Descending Los Angeles Center
11:09PM 35.8794 -115.2169 231° Southwest 195 224 6,800 -1,140 Descending Los Angeles Center
11:10PM 35.9178 -115.2547 321° Northwest 190 219 5,700 -1,140 Descending Los Angeles Center
11:11PM 35.9631 -115.2347 20° North 184 212 4,700 -1,080 Descending Los Angeles Center
11:13PM 36.0208 -115.2022 24° Northeast 171 197 3,300 -960 Descending Los Angeles Center
11:13PM 36.0444 -115.1881 26° Northeast 128 147 2,900 -420 Descending Los Angeles Center
11:14PM 36.0753 -115.1739 20° North 129 148 2,600 -300 Descending Los Angeles Center
11:16PM 36.0801 -115.1523 238° Southwest  Level Estimated
11:23PM 36.0801 -115.1523 270° West  Level Estimated